Time;durP1;ratioP1;P1;durP2;ratioP2;P2;SDS_P1;SDS_P2;PMS_P1;PMS_P2;Temp;Humidity;BMP_temperature;BMP_pressure;BME280_temperature;BME280_humidity;BME280_pressure;Samples;Min_cycle;Max_cycle;Signal;HPM_P1;HPM_P2
2023/01/27 00:02:21;;;;;;;;;;;23.40;99.90;;;;;;5080533;28;20467;-66
2023/01/27 00:04:47;;;;;;;;;;;23.40;99.90;;;;;;5074298;28;19924;-65
2023/01/27 00:07:14;;;;;;;;;;;23.60;99.90;;;;;;5074839;28;20517;-66
2023/01/27 00:09:41;;;;;;;;;;;23.80;99.90;;;;;;5084185;28;19912;-65
2023/01/27 00:15:02;;;;;;;;;;;24.10;99.90;;;;;;5075564;28;20380;-63
2023/01/27 00:17:29;;;;;;;;;;;24.40;99.90;;;;;;5082565;28;20382;-64
2023/01/27 00:19:56;;;;;;;;;;;24.60;99.90;;;;;;5078871;28;19913;-65
2023/01/27 00:25:07;;;;;;;;;;;24.70;99.90;;;;;;5077837;28;20016;-64
2023/01/27 00:27:34;;;;;;;;;;;24.80;99.90;;;;;;5075395;28;20446;-67
2023/01/27 00:30:03;;;;;;;;;;;25.00;99.90;;;;;;5076591;28;19971;-65
2023/01/27 00:35:15;;;;;;;;;;;25.30;99.90;;;;;;5076111;28;20039;-66
2023/01/27 00:37:46;;;;;;;;;;;25.40;99.90;;;;;;5074516;28;20118;-66
2023/01/27 00:40:13;;;;;;;;;;;25.60;99.90;;;;;;5076614;28;20269;-66
2023/01/27 00:42:40;;;;;;;;;;;25.90;99.90;;;;;;5083273;28;19995;-65
2023/01/27 00:47:51;;;;;;;;;;;26.30;99.90;;;;;;5075947;28;19922;-65
2023/01/27 00:50:19;;;;;;;;;;;26.70;99.90;;;;;;5081551;28;19919;-64
2023/01/27 00:52:46;;;;;;;;;;;27.00;99.90;;;;;;5075354;28;19912;-65
2023/01/27 00:55:14;;;;;;;;;;;27.30;99.90;;;;;;5083564;28;19912;-65
2023/01/27 00:57:41;;;;;;;;;;;27.30;99.90;;;;;;5078722;28;19919;-66
2023/01/27 01:00:08;;;;;;;;;;;27.30;99.90;;;;;;5076006;28;19919;-64
2023/01/27 01:02:35;;;;;;;;;;;27.40;99.90;;;;;;5074417;28;20369;-64
2023/01/27 01:05:02;;;;;;;;;;;27.60;99.90;;;;;;5075756;28;20355;-64
2023/01/27 01:07:29;;;;;;;;;;;27.70;99.90;;;;;;5080147;28;19915;-66
2023/01/27 01:09:55;;;;;;;;;;;27.70;99.90;;;;;;5074994;28;19912;-64
2023/01/27 01:12:22;;;;;;;;;;;27.70;99.90;;;;;;5077468;28;20434;-65
2023/01/27 01:14:49;;;;;;;;;;;27.50;99.90;;;;;;5079346;28;19912;-67
2023/01/27 01:17:15;;;;;;;;;;;27.60;99.90;;;;;;5075292;28;19966;-65
2023/01/27 01:19:42;;;;;;;;;;;27.70;99.90;;;;;;5075772;28;19918;-65
2023/01/27 01:22:09;;;;;;;;;;;27.90;99.90;;;;;;5075495;28;19916;-65
2023/01/27 01:24:35;;;;;;;;;;;28.10;99.90;;;;;;5075594;28;19937;-65
2023/01/27 01:27:02;;;;;;;;;;;28.20;99.90;;;;;;5075239;28;19916;-66
2023/01/27 01:29:28;;;;;;;;;;;28.10;99.90;;;;;;5076582;28;19919;-66
2023/01/27 01:31:55;;;;;;;;;;;28.40;99.90;;;;;;5073374;28;19962;-65
2023/01/27 01:34:22;;;;;;;;;;;28.60;99.90;;;;;;5073368;28;19920;-65
2023/01/27 01:36:48;;;;;;;;;;;28.70;99.90;;;;;;5073373;28;19912;-65
2023/01/27 01:39:15;;;;;;;;;;;28.90;99.90;;;;;;5072967;28;20010;-66
2023/01/27 01:41:41;;;;;;;;;;;29.10;99.90;;;;;;5073027;28;19934;-67
2023/01/27 01:44:37;;;;;;;;;;;29.20;99.90;;;;;;5073379;28;19920;-67
2023/01/27 01:47:04;;;;;;;;;;;29.50;99.90;;;;;;5064392;28;20373;-65
2023/01/27 01:49:36;;;;;;;;;;;29.80;99.90;;;;;;5073298;28;19908;-67
2023/01/27 01:52:07;;;;;;;;;;;30.00;99.90;;;;;;5073291;28;20273;-66
2023/01/27 01:54:36;;;;;;;;;;;30.00;99.90;;;;;;5073003;28;19908;-66
2023/01/27 01:57:07;;;;;;;;;;;29.90;99.90;;;;;;5073073;28;19908;-66
2023/01/27 02:00:06;;;;;;;;;;;30.00;99.90;;;;;;5072879;28;19913;-65
2023/01/27 02:02:33;;;;;;;;;;;29.80;99.90;;;;;;5050127;28;19909;-67
2023/01/27 02:05:31;;;;;;;;;;;29.70;99.90;;;;;;5072894;28;19916;-67
2023/01/27 02:08:19;;;;;;;;;;;29.70;99.90;;;;;;5049126;28;19999;-66
2023/01/27 02:10:46;;;;;;;;;;;29.50;99.90;;;;;;5072798;28;19912;-65
2023/01/27 02:13:13;;;;;;;;;;;29.60;99.90;;;;;;5072848;28;19915;-67
2023/01/27 02:15:39;;;;;;;;;;;29.70;99.90;;;;;;5072780;28;19909;-65
2023/01/27 02:18:06;;;;;;;;;;;30.00;99.90;;;;;;5072810;28;19909;-66
2023/01/27 02:20:42;;;;;;;;;;;30.20;99.90;;;;;;5072629;28;19908;-66
2023/01/27 02:23:18;;;;;;;;;;;30.30;99.60;;;;;;5071329;28;20341;-67
2023/01/27 02:25:50;;;;;;;;;;;30.40;99.10;;;;;;5072562;28;20365;-67
2023/01/27 02:28:17;;;;;;;;;;;30.30;99.20;;;;;;5072571;28;19909;-66
2023/01/27 02:30:43;;;;;;;;;;;30.50;99.00;;;;;;5072646;28;19913;-66
2023/01/27 02:33:11;;;;;;;;;;;30.60;98.80;;;;;;5072777;28;20369;-66
2023/01/27 02:35:51;;;;;;;;;;;30.50;98.70;;;;;;5072450;28;19993;-66
2023/01/27 02:38:18;;;;;;;;;;;30.40;98.60;;;;;;5072399;28;19912;-65
2023/01/27 02:40:47;;;;;;;;;;;30.20;98.90;;;;;;5072472;28;19909;-67
2023/01/27 02:43:14;;;;;;;;;;;30.10;98.80;;;;;;5072661;28;19951;-66
2023/01/27 02:45:40;;;;;;;;;;;30.10;99.10;;;;;;5072316;28;19916;-66
2023/01/27 02:48:07;;;;;;;;;;;30.20;99.20;;;;;;5072327;28;20003;-66
2023/01/27 02:50:33;;;;;;;;;;;30.50;99.70;;;;;;5072460;28;20383;-66
2023/01/27 02:53:00;;;;;;;;;;;30.90;98.70;;;;;;5072613;28;19913;-66
2023/01/27 02:55:27;;;;;;;;;;;31.20;97.70;;;;;;5072779;28;20289;-66
2023/01/27 02:57:53;;;;;;;;;;;31.50;98.20;;;;;;5072424;28;19971;-66
2023/01/27 03:00:20;;;;;;;;;;;31.80;97.30;;;;;;5072737;28;19955;-65
2023/01/27 03:02:47;;;;;;;;;;;32.20;96.70;;;;;;5072349;28;19909;-67
2023/01/27 03:05:14;;;;;;;;;;;32.20;96.50;;;;;;5072290;28;20006;-66
2023/01/27 03:07:41;;;;;;;;;;;32.50;96.60;;;;;;5072232;28;19915;-66
2023/01/27 03:10:08;;;;;;;;;;;32.80;95.40;;;;;;5072316;28;19999;-65
2023/01/27 03:12:35;;;;;;;;;;;32.80;95.60;;;;;;5072236;28;19909;-65
2023/01/27 03:20:34;;;;;;;;;;;33.10;94.50;;;;;;5095571;28;20375;-65
2023/01/27 03:23:00;;;;;;;;;;;33.50;94.00;;;;;;5087565;28;20403;-66
2023/01/27 03:25:27;;;;;;;;;;;34.20;93.20;;;;;;5081540;28;20382;-65
2023/01/27 03:27:53;;;;;;;;;;;34.90;92.30;;;;;;5084897;28;20377;-66
2023/01/27 03:30:20;;;;;;;;;;;35.70;91.00;;;;;;5074854;28;19999;-65
2023/01/27 03:32:47;;;;;;;;;;;36.60;91.40;;;;;;5074587;28;19915;-64
2023/01/27 03:35:14;;;;;;;;;;;37.10;87.80;;;;;;5074741;28;19924;-66
2023/01/27 03:46:17;;;;;;;;;;;38.10;84.20;;;;;;5074867;28;19923;-66
2023/01/27 03:48:48;;;;;;;;;;;39.00;81.50;;;;;;5082750;28;19919;-66
2023/01/27 03:51:15;;;;;;;;;;;39.20;80.90;;;;;;5095160;28;19908;-66
2023/01/27 03:53:41;;;;;;;;;;;39.40;80.10;;;;;;5083011;28;19909;-66
2023/01/27 03:56:08;;;;;;;;;;;39.20;79.20;;;;;;5075006;28;19920;-66
2023/01/27 03:58:35;;;;;;;;;;;39.20;79.90;;;;;;5074343;28;19908;-65
2023/01/27 04:01:03;;;;;;;;;;;39.30;79.20;;;;;;5073445;28;19912;-65
2023/01/27 04:09:09;;;;;;;;;;;40.70;76.80;;;;;;5074260;28;19959;-66
2023/01/27 04:11:54;;;;;;;;;;;40.70;75.80;;;;;;5073688;28;19908;-63
2023/01/27 04:14:28;;;;;;;;;;;40.60;76.50;;;;;;5073752;28;19909;-65
2023/01/27 04:17:02;;;;;;;;;;;40.80;75.00;;;;;;5073905;28;19908;-65
2023/01/27 04:19:29;;;;;;;;;;;40.70;75.10;;;;;;5073193;28;20389;-66
2023/01/27 04:21:56;;;;;;;;;;;40.60;75.70;;;;;;5074298;28;19916;-64
2023/01/27 04:24:23;;;;;;;;;;;40.70;74.50;;;;;;5073980;28;19985;-63
2023/01/27 04:26:53;;;;;;;;;;;40.70;75.60;;;;;;5071945;28;19909;-66
2023/01/27 04:29:20;;;;;;;;;;;40.60;73.90;;;;;;5075100;28;19963;-67
2023/01/27 04:31:47;;;;;;;;;;;40.50;74.30;;;;;;5094457;28;19912;-65
2023/01/27 04:34:14;;;;;;;;;;;40.50;74.20;;;;;;5077556;28;19949;-67
2023/01/27 04:36:41;;;;;;;;;;;39.90;76.20;;;;;;5073552;28;19923;-65
2023/01/27 04:39:08;;;;;;;;;;;40.40;74.40;;;;;;5077358;28;19919;-65
2023/01/27 04:41:35;;;;;;;;;;;40.10;74.50;;;;;;5093776;28;19991;-65
2023/01/27 04:44:03;;;;;;;;;;;40.10;74.60;;;;;;5079112;28;19913;-65
2023/01/27 04:46:29;;;;;;;;;;;40.60;75.30;;;;;;5073592;28;19908;-65
2023/01/27 04:48:56;;;;;;;;;;;41.00;73.00;;;;;;5073135;28;19909;-64
2023/01/27 04:51:23;;;;;;;;;;;40.80;73.10;;;;;;5073124;28;19915;-66
2023/01/27 04:53:50;;;;;;;;;;;40.60;74.20;;;;;;5072966;28;19948;-64
2023/01/27 04:56:36;;;;;;;;;;;40.30;73.60;;;;;;5072761;28;20266;-65
2023/01/27 04:59:04;;;;;;;;;;;40.20;73.80;;;;;;5072116;28;19943;-64
2023/01/27 05:01:31;;;;;;;;;;;40.20;73.80;;;;;;5072758;28;19908;-64
2023/01/27 05:03:57;;;;;;;;;;;40.20;75.40;;;;;;5073034;28;19912;-64
2023/01/27 05:06:24;;;;;;;;;;;40.00;74.50;;;;;;5072982;28;19974;-65
2023/01/27 05:08:51;;;;;;;;;;;40.40;74.10;;;;;;5072765;28;20285;-64
2023/01/27 05:11:18;;;;;;;;;;;40.10;73.60;;;;;;5073265;28;20283;-65
2023/01/27 05:13:45;;;;;;;;;;;39.90;74.00;;;;;;5084951;28;19961;-65
2023/01/27 05:16:13;;;;;;;;;;;39.60;76.00;;;;;;5092694;28;19916;-66
2023/01/27 05:18:41;;;;;;;;;;;40.20;73.90;;;;;;5076957;28;20003;-65
2023/01/27 05:21:11;;;;;;;;;;;40.40;73.30;;;;;;5072737;28;20372;-65
2023/01/27 05:23:37;;;;;;;;;;;39.80;74.30;;;;;;5072492;28;19908;-65
2023/01/27 05:26:14;;;;;;;;;;;39.90;75.80;;;;;;5088027;28;20057;-65
2023/01/27 05:28:42;;;;;;;;;;;40.40;73.60;;;;;;5078216;28;19908;-64
2023/01/27 05:31:11;;;;;;;;;;;40.60;73.40;;;;;;5088427;28;19994;-66
2023/01/27 05:33:38;;;;;;;;;;;40.60;72.90;;;;;;5081872;28;19909;-65
2023/01/27 05:36:05;;;;;;;;;;;39.60;74.40;;;;;;5086806;28;19920;-66
2023/01/27 05:38:32;;;;;;;;;;;39.60;74.80;;;;;;5078885;28;20280;-66
2023/01/27 05:41:00;;;;;;;;;;;39.30;75.40;;;;;;5085214;28;19919;-66
2023/01/27 05:43:28;;;;;;;;;;;39.50;75.40;;;;;;5082997;28;19961;-66
2023/01/27 05:46:01;;;;;;;;;;;39.80;75.20;;;;;;5088611;28;19928;-66
2023/01/27 05:48:27;;;;;;;;;;;40.10;74.50;;;;;;5077677;28;19909;-65
2023/01/27 05:50:58;;;;;;;;;;;40.10;74.10;;;;;;5087687;28;19912;-66
2023/01/27 05:53:25;;;;;;;;;;;39.90;75.70;;;;;;5082304;28;19908;-66
2023/01/27 05:55:52;;;;;;;;;;;39.90;74.80;;;;;;5087102;28;20352;-66
2023/01/27 05:58:19;;;;;;;;;;;39.50;75.20;;;;;;5084287;28;19936;-66
2023/01/27 06:00:46;;;;;;;;;;;39.60;75.50;;;;;;5091106;28;19919;-66
2023/01/27 06:03:13;;;;;;;;;;;39.60;75.30;;;;;;5088969;28;20387;-66
2023/01/27 06:05:48;;;;;;;;;;;39.70;74.40;;;;;;5088947;28;19963;-65
2023/01/27 06:08:14;;;;;;;;;;;40.00;74.40;;;;;;5080644;28;19931;-65
2023/01/27 06:10:41;;;;;;;;;;;39.90;74.80;;;;;;5085938;28;20357;-65
2023/01/27 06:13:08;;;;;;;;;;;39.90;74.20;;;;;;5084919;28;19966;-65
2023/01/27 06:15:34;;;;;;;;;;;38.90;75.60;;;;;;5084829;28;19922;-66
2023/01/27 06:18:01;;;;;;;;;;;37.80;78.90;;;;;;5082921;28;19909;-65
2023/01/27 06:20:27;;;;;;;;;;;37.40;78.50;;;;;;5083142;28;19957;-65
2023/01/27 06:22:54;;;;;;;;;;;36.90;79.20;;;;;;5085724;28;20659;-66
2023/01/27 06:25:21;;;;;;;;;;;35.70;82.10;;;;;;5081363;28;19973;-65
2023/01/27 06:27:47;;;;;;;;;;;34.70;83.80;;;;;;5083466;28;20356;-66
2023/01/27 06:30:14;;;;;;;;;;;33.90;86.20;;;;;;5080662;28;19912;-65
2023/01/27 06:32:41;;;;;;;;;;;33.00;87.90;;;;;;5088235;28;19909;-65
2023/01/27 06:35:07;;;;;;;;;;;32.20;90.20;;;;;;5078885;28;20016;-65
2023/01/27 06:37:34;;;;;;;;;;;31.50;91.10;;;;;;5085138;28;19916;-66
2023/01/27 06:40:01;;;;;;;;;;;30.90;92.20;;;;;;5077349;28;19912;-66
2023/01/27 06:42:27;;;;;;;;;;;30.40;92.80;;;;;;5089641;28;20032;-65
2023/01/27 06:44:54;;;;;;;;;;;30.00;94.30;;;;;;5076731;28;19920;-64
2023/01/27 06:47:21;;;;;;;;;;;29.80;94.20;;;;;;5087682;28;19909;-65
2023/01/27 06:49:48;;;;;;;;;;;29.70;94.60;;;;;;5073971;28;20282;-65
2023/01/27 06:52:14;;;;;;;;;;;29.60;94.60;;;;;;5091375;28;19908;-64
2023/01/27 06:54:41;;;;;;;;;;;29.60;94.80;;;;;;5079052;28;20049;-65
2023/01/27 06:57:11;;;;;;;;;;;29.70;95.10;;;;;;5093384;28;19999;-65
2023/01/27 06:59:38;;;;;;;;;;;29.80;95.10;;;;;;5077955;28;19916;-65
2023/01/27 07:02:04;;;;;;;;;;;30.00;95.10;;;;;;5095363;28;19908;-66
2023/01/27 07:04:31;;;;;;;;;;;30.20;94.80;;;;;;5078243;28;20271;-64
2023/01/27 07:06:57;;;;;;;;;;;30.30;94.50;;;;;;5094741;28;19908;-65
2023/01/27 07:09:24;;;;;;;;;;;30.30;94.30;;;;;;5075005;28;19909;-66
2023/01/27 07:11:52;;;;;;;;;;;30.30;94.70;;;;;;5075096;28;19912;-66
2023/01/27 07:14:18;;;;;;;;;;;30.30;94.70;;;;;;5075136;28;19916;-66
2023/01/27 07:16:45;;;;;;;;;;;30.40;94.60;;;;;;5092914;28;19923;-65
2023/01/27 07:19:12;;;;;;;;;;;30.30;94.60;;;;;;5075774;28;19919;-65
2023/01/27 07:21:38;;;;;;;;;;;30.30;94.80;;;;;;5093152;28;20296;-65
2023/01/27 07:24:05;;;;;;;;;;;30.30;95.00;;;;;;5080090;28;19913;-66
2023/01/27 07:26:32;;;;;;;;;;;30.50;94.90;;;;;;5092232;28;19912;-65
2023/01/27 07:28:58;;;;;;;;;;;30.40;94.80;;;;;;5077818;28;20334;-65
2023/01/27 07:31:25;;;;;;;;;;;30.40;94.80;;;;;;5090107;28;19912;-65
2023/01/27 07:33:52;;;;;;;;;;;30.30;94.70;;;;;;5081524;28;19915;-65
2023/01/27 07:36:19;;;;;;;;;;;30.20;95.00;;;;;;5088800;28;19920;-65
2023/01/27 07:38:49;;;;;;;;;;;30.10;95.30;;;;;;5078508;28;19916;-65
2023/01/27 07:41:16;;;;;;;;;;;29.80;95.50;;;;;;5088466;28;19952;-66
2023/01/27 07:43:43;;;;;;;;;;;29.60;95.80;;;;;;5082795;28;19931;-66
2023/01/27 07:46:09;;;;;;;;;;;29.50;96.10;;;;;;5087231;28;19920;-65
2023/01/27 07:48:36;;;;;;;;;;;29.40;96.20;;;;;;5080810;28;19908;-66
2023/01/27 07:51:02;;;;;;;;;;;29.30;96.50;;;;;;5086021;28;19912;-66
2023/01/27 07:53:29;;;;;;;;;;;29.10;96.80;;;;;;5084867;28;19954;-66
2023/01/27 07:55:58;;;;;;;;;;;28.70;97.40;;;;;;5084414;28;20003;-66
2023/01/27 07:58:25;;;;;;;;;;;28.50;98.00;;;;;;5081678;28;19916;-66
2023/01/27 08:00:51;;;;;;;;;;;28.30;98.40;;;;;;5083257;28;19920;-66
2023/01/27 08:03:22;;;;;;;;;;;28.20;98.70;;;;;;5085753;28;19960;-65
2023/01/27 08:05:49;;;;;;;;;;;28.10;99.10;;;;;;5081533;28;19920;-65
2023/01/27 08:08:16;;;;;;;;;;;27.80;99.70;;;;;;5082921;28;19995;-65
2023/01/27 08:10:45;;;;;;;;;;;27.70;99.90;;;;;;5081800;28;20394;-65
2023/01/27 08:13:13;;;;;;;;;;;27.70;99.90;;;;;;5093552;28;19961;-66
2023/01/27 08:15:39;;;;;;;;;;;27.60;99.90;;;;;;5094276;28;19909;-63
2023/01/27 08:18:06;;;;;;;;;;;27.50;99.90;;;;;;5093174;28;19908;-65
2023/01/27 08:20:33;;;;;;;;;;;27.40;99.90;;;;;;5094258;28;20009;-65
2023/01/27 08:22:59;;;;;;;;;;;27.40;99.90;;;;;;5093927;28;19912;-65
2023/01/27 08:25:26;;;;;;;;;;;27.40;99.90;;;;;;5093806;28;19923;-66
2023/01/27 08:27:54;;;;;;;;;;;27.40;99.90;;;;;;5093749;28;19911;-64
2023/01/27 08:30:20;;;;;;;;;;;27.20;99.90;;;;;;5093687;28;19908;-63
2023/01/27 08:32:47;;;;;;;;;;;27.10;99.90;;;;;;5093805;28;19908;-64
2023/01/27 08:35:14;;;;;;;;;;;27.00;99.90;;;;;;5093714;28;19959;-67
2023/01/27 08:37:41;;;;;;;;;;;26.90;99.90;;;;;;5093450;28;19915;-62
2023/01/27 08:40:08;;;;;;;;;;;26.80;99.90;;;;;;5093619;28;20326;-66
2023/01/27 08:42:34;;;;;;;;;;;26.70;99.90;;;;;;5091275;28;20006;-65
2023/01/27 08:45:01;;;;;;;;;;;26.60;99.90;;;;;;5092868;28;19920;-65
2023/01/27 08:47:27;;;;;;;;;;;26.50;99.90;;;;;;5093222;28;19919;-65
2023/01/27 08:49:54;;;;;;;;;;;26.40;99.90;;;;;;5093200;28;19950;-66
2023/01/27 08:52:22;;;;;;;;;;;26.30;99.90;;;;;;5093250;28;20422;-66
2023/01/27 08:54:48;;;;;;;;;;;26.20;99.90;;;;;;5093131;28;19912;-64
2023/01/27 08:57:15;;;;;;;;;;;26.20;99.90;;;;;;5093516;28;19912;-66
2023/01/27 08:59:42;;;;;;;;;;;26.10;99.90;;;;;;5093144;28;19908;-65
2023/01/27 09:02:09;;;;;;;;;;;26.00;99.90;;;;;;5085913;28;20003;-65
2023/01/27 09:04:40;;;;;;;;;;;26.00;99.90;;;;;;5091929;28;20379;-63
2023/01/27 09:07:06;;;;;;;;;;;25.90;99.90;;;;;;5091885;28;20432;-66
2023/01/27 09:09:33;;;;;;;;;;;25.80;99.90;;;;;;5072841;28;19920;-64
2023/01/27 09:11:59;;;;;;;;;;;25.80;99.90;;;;;;5083791;28;19935;-64
2023/01/27 09:14:26;;;;;;;;;;;25.80;99.90;;;;;;5091064;28;19908;-65
2023/01/27 09:16:53;;;;;;;;;;;25.70;99.90;;;;;;5090082;28;19912;-65
2023/01/27 09:19:19;;;;;;;;;;;25.70;99.90;;;;;;5071191;28;20284;-65
2023/01/27 09:21:46;;;;;;;;;;;25.60;99.90;;;;;;5080062;28;19912;-66
2023/01/27 09:24:16;;;;;;;;;;;25.40;99.90;;;;;;5092126;28;19916;-65
2023/01/27 09:26:43;;;;;;;;;;;25.40;99.90;;;;;;5092257;28;20379;-65
2023/01/27 09:29:09;;;;;;;;;;;25.40;99.90;;;;;;5074053;28;19973;-65
2023/01/27 09:31:36;;;;;;;;;;;25.50;99.90;;;;;;5079285;28;19912;-65
2023/01/27 09:34:03;;;;;;;;;;;25.40;99.90;;;;;;5092280;28;19938;-65
2023/01/27 09:36:31;;;;;;;;;;;25.40;99.90;;;;;;5091384;28;19923;-64
2023/01/27 09:38:59;;;;;;;;;;;25.60;99.90;;;;;;5075533;28;19940;-65
2023/01/27 09:41:39;;;;;;;;;;;25.50;99.90;;;;;;5079370;28;20365;-65
2023/01/27 09:44:24;;;;;;;;;;;25.50;99.90;;;;;;5091056;28;19919;-65
2023/01/27 09:47:03;;;;;;;;;;;25.30;99.90;;;;;;5092521;28;19920;-63
2023/01/27 09:49:47;;;;;;;;;;;25.30;99.90;;;;;;5072183;28;20269;-64
2023/01/27 09:52:14;;;;;;;;;;;25.20;99.90;;;;;;5082907;28;19912;-65
2023/01/27 09:54:59;;;;;;;;;;;25.20;99.90;;;;;;5091843;28;20006;-64
2023/01/27 09:57:36;;;;;;;;;;;25.10;99.90;;;;;;5094653;28;19916;-65
2023/01/27 10:00:06;;;;;;;;;;;25.10;99.90;;;;;;5070731;28;19908;-66
2023/01/27 10:02:39;;;;;;;;;;;25.10;99.90;;;;;;5082856;28;19912;-65
2023/01/27 10:05:24;;;;;;;;;;;25.10;99.90;;;;;;5089911;28;19973;-63
2023/01/27 10:07:53;;;;;;;;;;;25.10;99.90;;;;;;5082462;28;20392;-64
2023/01/27 10:10:38;;;;;;;;;;;25.00;99.90;;;;;;5070938;28;19908;-64
2023/01/27 10:13:12;;;;;;;;;;;25.00;99.90;;;;;;5071832;28;19930;-66
2023/01/27 10:15:55;;;;;;;;;;;25.00;99.90;;;;;;5071823;28;20526;-65
2023/01/27 10:18:28;;;;;;;;;;;25.10;99.90;;;;;;5072506;28;20317;-65
2023/01/27 10:21:09;;;;;;;;;;;25.00;99.90;;;;;;5071688;28;19909;-66
2023/01/27 10:23:59;;;;;;;;;;;25.10;99.90;;;;;;5070709;28;19930;-66
2023/01/27 10:26:41;;;;;;;;;;;25.10;99.90;;;;;;5072599;28;19917;-65
2023/01/27 10:29:20;;;;;;;;;;;25.00;99.90;;;;;;5071997;28;19916;-65
2023/01/27 10:32:09;;;;;;;;;;;25.00;99.90;;;;;;5072546;28;19908;-66
2023/01/27 10:34:39;;;;;;;;;;;24.90;99.90;;;;;;5062073;28;19932;-67
2023/01/27 10:37:08;;;;;;;;;;;24.90;99.90;;;;;;5072122;28;19920;-65
2023/01/27 10:39:40;;;;;;;;;;;24.90;99.90;;;;;;5071316;28;19919;-66
2023/01/27 10:42:12;;;;;;;;;;;24.90;99.90;;;;;;5072328;28;20058;-65
2023/01/27 10:44:45;;;;;;;;;;;24.90;99.90;;;;;;5071872;28;19951;-66
2023/01/27 10:47:18;;;;;;;;;;;24.90;99.90;;;;;;5072209;28;19998;-66
2023/01/27 10:49:50;;;;;;;;;;;24.90;99.90;;;;;;5072954;28;19916;-65
2023/01/27 10:52:22;;;;;;;;;;;24.80;99.90;;;;;;5072428;28;20467;-66
2023/01/27 10:54:58;;;;;;;;;;;24.80;99.90;;;;;;5072376;28;19913;-65
2023/01/27 10:57:27;;;;;;;;;;;24.80;99.90;;;;;;5072146;28;19909;-65
2023/01/27 11:00:04;;;;;;;;;;;24.80;99.90;;;;;;5071947;28;19912;-64
2023/01/27 11:02:41;;;;;;;;;;;24.80;99.90;;;;;;5071348;28;19919;-65
2023/01/27 11:05:17;;;;;;;;;;;24.80;99.90;;;;;;5080979;28;20272;-63
2023/01/27 11:07:49;;;;;;;;;;;24.80;99.90;;;;;;5073632;28;19936;-65
2023/01/27 11:10:20;;;;;;;;;;;24.80;99.90;;;;;;5085437;28;19920;-66
2023/01/27 11:12:53;;;;;;;;;;;24.80;99.90;;;;;;5090918;28;19917;-66
2023/01/27 11:15:32;;;;;;;;;;;24.80;99.90;;;;;;5083152;28;19924;-66
2023/01/27 11:18:25;;;;;;;;;;;24.80;99.90;;;;;;5071282;28;19935;-66
2023/01/27 11:20:53;;;;;;;;;;;24.80;99.90;;;;;;5069317;28;19919;-66
2023/01/27 11:23:31;;;;;;;;;;;24.80;99.90;;;;;;5083117;28;19916;-66
2023/01/27 11:25:57;;;;;;;;;;;24.80;99.90;;;;;;5071691;28;19916;-65
2023/01/27 11:28:42;;;;;;;;;;;24.80;99.90;;;;;;5071990;28;20293;-65
2023/01/27 11:31:28;;;;;;;;;;;24.80;99.90;;;;;;5072783;28;20031;-65
2023/01/27 11:34:02;;;;;;;;;;;24.80;99.90;;;;;;5073682;28;19928;-66
2023/01/27 11:36:29;;;;;;;;;;;24.80;99.90;;;;;;5076685;28;19990;-65
2023/01/27 11:39:03;;;;;;;;;;;24.80;99.90;;;;;;5078175;28;19965;-65
2023/01/27 11:41:33;;;;;;;;;;;24.80;99.90;;;;;;5091386;28;20497;-65
2023/01/27 11:44:05;;;;;;;;;;;24.70;99.90;;;;;;5089576;28;19912;-65
2023/01/27 11:46:33;;;;;;;;;;;24.70;99.90;;;;;;5092625;28;19916;-65
2023/01/27 11:49:01;;;;;;;;;;;24.70;99.90;;;;;;5091242;28;19916;-65
2023/01/27 11:51:34;;;;;;;;;;;24.70;99.90;;;;;;5074621;28;19916;-66
2023/01/27 11:54:04;;;;;;;;;;;24.70;99.90;;;;;;5074325;28;19915;-65
2023/01/27 11:56:31;;;;;;;;;;;24.70;99.90;;;;;;5074706;28;19908;-66
2023/01/27 11:59:01;;;;;;;;;;;24.70;99.90;;;;;;5074002;28;19912;-65
2023/01/27 12:01:43;;;;;;;;;;;24.70;99.90;;;;;;5085324;28;19984;-66
2023/01/27 12:04:13;;;;;;;;;;;24.70;99.90;;;;;;5073172;28;19917;-66
2023/01/27 12:06:48;;;;;;;;;;;24.70;99.90;;;;;;5073648;28;19917;-66
2023/01/27 12:09:41;;;;;;;;;;;24.70;99.90;;;;;;5073630;28;19912;-67
2023/01/27 12:12:14;;;;;;;;;;;24.70;99.90;;;;;;5071912;28;20319;-63
2023/01/27 12:14:54;;;;;;;;;;;24.70;99.90;;;;;;5081187;28;19977;-66
2023/01/27 12:17:39;;;;;;;;;;;24.70;99.90;;;;;;5094603;28;19916;-66
2023/01/27 12:20:21;;;;;;;;;;;24.70;99.90;;;;;;5077887;28;19913;-63
2023/01/27 12:22:51;;;;;;;;;;;24.60;99.90;;;;;;5081386;28;19920;-65
2023/01/27 12:25:21;;;;;;;;;;;24.60;99.90;;;;;;5074267;28;20347;-67
2023/01/27 12:27:51;;;;;;;;;;;24.60;99.90;;;;;;5074172;28;19915;-65
2023/01/27 12:30:22;;;;;;;;;;;24.60;99.90;;;;;;5075754;28;19919;-65
2023/01/27 12:32:49;;;;;;;;;;;24.60;99.90;;;;;;5081740;28;19917;-65
2023/01/27 12:35:35;;;;;;;;;;;24.70;99.90;;;;;;5073845;28;20403;-64
2023/01/27 12:38:04;;;;;;;;;;;24.70;99.90;;;;;;5074066;28;20007;-63
2023/01/27 12:40:32;;;;;;;;;;;24.60;99.90;;;;;;5074449;28;20011;-66
2023/01/27 12:43:01;;;;;;;;;;;24.50;99.90;;;;;;5074548;28;19908;-65
2023/01/27 12:45:29;;;;;;;;;;;24.50;99.90;;;;;;5074060;28;20055;-66
2023/01/27 12:48:02;;;;;;;;;;;24.50;99.90;;;;;;5074258;28;19909;-67
2023/01/27 12:50:30;;;;;;;;;;;24.50;99.90;;;;;;5088651;28;19966;-65
2023/01/27 12:53:04;;;;;;;;;;;24.50;99.90;;;;;;5093871;28;19947;-64
2023/01/27 12:55:35;;;;;;;;;;;24.50;99.90;;;;;;5080856;28;20451;-65
2023/01/27 12:58:02;;;;;;;;;;;24.50;99.90;;;;;;5074103;28;19995;-65
2023/01/27 13:00:29;;;;;;;;;;;24.60;99.90;;;;;;5073899;28;20331;-65
2023/01/27 13:03:04;;;;;;;;;;;24.60;99.90;;;;;;5073590;28;19966;-65
2023/01/27 13:05:41;;;;;;;;;;;24.70;99.90;;;;;;5074074;28;19921;-65
2023/01/27 13:08:16;;;;;;;;;;;24.70;99.90;;;;;;5073343;28;19912;-64
2023/01/27 13:10:50;;;;;;;;;;;24.70;99.90;;;;;;5077691;28;19912;-64
2023/01/27 13:13:22;;;;;;;;;;;24.70;99.90;;;;;;5093859;28;19969;-64
2023/01/27 13:15:55;;;;;;;;;;;24.60;99.90;;;;;;5093035;28;19912;-64
2023/01/27 13:18:21;;;;;;;;;;;24.70;99.90;;;;;;5094012;28;19908;-65
2023/01/27 13:21:01;;;;;;;;;;;24.70;99.90;;;;;;5092618;28;19920;-64
2023/01/27 13:23:34;;;;;;;;;;;24.70;99.90;;;;;;5086109;28;19912;-66
2023/01/27 13:26:10;;;;;;;;;;;24.60;99.90;;;;;;5093466;28;20330;-65
2023/01/27 13:28:56;;;;;;;;;;;24.70;99.90;;;;;;5073564;28;19919;-67
2023/01/27 13:31:40;;;;;;;;;;;24.70;99.90;;;;;;5072866;28;20369;-65
2023/01/27 13:34:15;;;;;;;;;;;24.70;99.90;;;;;;5072896;28;19913;-64
2023/01/27 13:36:55;;;;;;;;;;;24.70;99.90;;;;;;5073526;28;19921;-64
2023/01/27 13:39:33;;;;;;;;;;;24.70;99.90;;;;;;5072418;28;19913;-64
2023/01/27 13:42:09;;;;;;;;;;;24.60;99.90;;;;;;5073348;28;19915;-64
2023/01/27 13:44:40;;;;;;;;;;;24.70;99.90;;;;;;5074215;28;19920;-65
2023/01/27 13:47:19;;;;;;;;;;;24.60;99.90;;;;;;5071751;28;19913;-66
2023/01/27 13:50:05;;;;;;;;;;;24.60;99.90;;;;;;5072718;28;19908;-65
2023/01/27 13:52:32;;;;;;;;;;;24.70;99.90;;;;;;5072368;28;19985;-64
2023/01/27 13:54:59;;;;;;;;;;;24.60;99.90;;;;;;5091549;28;19942;-65
2023/01/27 13:57:31;;;;;;;;;;;24.60;99.90;;;;;;5093080;28;19908;-65
2023/01/27 14:00:06;;;;;;;;;;;24.70;99.90;;;;;;5077966;28;19923;-65
2023/01/27 14:02:46;;;;;;;;;;;24.60;99.90;;;;;;5073132;28;19913;-64
2023/01/27 14:05:22;;;;;;;;;;;24.60;99.90;;;;;;5072068;28;19935;-64
2023/01/27 14:08:07;;;;;;;;;;;24.60;99.90;;;;;;5072623;28;19913;-65
2023/01/27 14:10:41;;;;;;;;;;;24.60;99.90;;;;;;5072911;28;19920;-64
2023/01/27 14:13:10;;;;;;;;;;;24.50;99.90;;;;;;5072916;28;19946;-64
2023/01/27 14:16:00;;;;;;;;;;;24.50;99.90;;;;;;5072818;28;19908;-64
2023/01/27 14:18:34;;;;;;;;;;;24.50;99.90;;;;;;5065344;28;19931;-65
2023/01/27 14:21:17;;;;;;;;;;;24.50;99.90;;;;;;5083658;28;19912;-65
2023/01/27 14:23:59;;;;;;;;;;;24.40;99.90;;;;;;5092494;28;19908;-64
2023/01/27 14:26:32;;;;;;;;;;;24.40;99.90;;;;;;5092960;28;19923;-64
2023/01/27 14:29:01;;;;;;;;;;;24.30;99.90;;;;;;5092040;28;20415;-63
2023/01/27 14:31:57;;;;;;;;;;;24.30;99.90;;;;;;5092759;28;19909;-64
2023/01/27 14:34:40;;;;;;;;;;;24.30;99.90;;;;;;5081043;28;20280;-64
2023/01/27 14:37:22;;;;;;;;;;;24.30;99.90;;;;;;5092176;28;19916;-64
2023/01/27 14:40:02;;;;;;;;;;;24.30;99.90;;;;;;5092652;28;19961;-65
2023/01/27 14:42:34;;;;;;;;;;;24.20;99.90;;;;;;5092691;28;19914;-66
2023/01/27 14:45:16;;;;;;;;;;;24.20;99.90;;;;;;5092470;28;19923;-65
2023/01/27 14:47:42;;;;;;;;;;;24.20;99.90;;;;;;5093037;28;19912;-66
2023/01/27 14:50:25;;;;;;;;;;;24.20;99.90;;;;;;5091519;28;19916;-66
2023/01/27 14:52:55;;;;;;;;;;;24.20;99.90;;;;;;5092176;28;19912;-64
2023/01/27 14:55:21;;;;;;;;;;;24.20;99.90;;;;;;5090124;28;19924;-66
2023/01/27 14:57:57;;;;;;;;;;;24.10;99.90;;;;;;5092203;28;20447;-64
2023/01/27 15:00:30;;;;;;;;;;;24.10;99.90;;;;;;5091829;28;19914;-66
2023/01/27 15:03:16;;;;;;;;;;;24.10;99.90;;;;;;5085600;28;19966;-66
2023/01/27 15:06:15;;;;;;;;;;;24.20;99.90;;;;;;5071314;28;19916;-66
2023/01/27 15:08:49;;;;;;;;;;;24.10;99.90;;;;;;5048370;28;20002;-64